sensor_id;sensor_type;location;lat;lon;timestamp;P1;durP1;ratioP1;P2;durP2;ratioP2
5730;SDS011;2890;51.950;7.668;2024-03-23T00:56:02;17.23;;;4.87;;
5730;SDS011;2890;51.950;7.668;2024-03-23T00:58:28;14.57;;;4.70;;
5730;SDS011;2890;51.950;7.668;2024-03-23T01:00:55;18.77;;;5.20;;
5730;SDS011;2890;51.950;7.668;2024-03-23T01:03:21;16.50;;;4.60;;
5730;SDS011;2890;51.950;7.668;2024-03-23T01:05:47;14.60;;;4.83;;
5730;SDS011;2890;51.950;7.668;2024-03-23T01:08:13;8.07;;;4.20;;
5730;SDS011;2890;51.950;7.668;2024-03-23T01:10:50;15.53;;;5.30;;
5730;SDS011;2890;51.950;7.668;2024-03-23T01:13:19;20.27;;;4.90;;
5730;SDS011;2890;51.950;7.668;2024-03-23T01:15:48;11.70;;;4.80;;
5730;SDS011;2890;51.950;7.668;2024-03-23T01:18:13;17.73;;;3.97;;
5730;SDS011;2890;51.950;7.668;2024-03-23T01:20:40;10.23;;;3.80;;
5730;SDS011;2890;51.950;7.668;2024-03-23T01:23:05;17.20;;;4.13;;
5730;SDS011;2890;51.950;7.668;2024-03-23T01:25:32;12.67;;;4.10;;
5730;SDS011;2890;51.950;7.668;2024-03-23T01:27:59;13.63;;;4.20;;
5730;SDS011;2890;51.950;7.668;2024-03-23T01:30:25;11.93;;;3.90;;
5730;SDS011;2890;51.950;7.668;2024-03-23T01:32:51;16.97;;;4.70;;
5730;SDS011;2890;51.950;7.668;2024-03-23T01:35:17;5.57;;;3.47;;
5730;SDS011;2890;51.950;7.668;2024-03-23T01:37:42;12.83;;;3.73;;
5730;SDS011;2890;51.950;7.668;2024-03-23T01:40:10;12.33;;;4.00;;
5730;SDS011;2890;51.950;7.668;2024-03-23T01:42:38;11.23;;;4.03;;
5730;SDS011;2890;51.950;7.668;2024-03-23T01:45:07;12.37;;;3.97;;
5730;SDS011;2890;51.950;7.668;2024-03-23T01:47:33;12.27;;;4.33;;
5730;SDS011;2890;51.950;7.668;2024-03-23T01:50:00;8.57;;;3.87;;
5730;SDS011;2890;51.950;7.668;2024-03-23T01:52:25;11.33;;;3.97;;
5730;SDS011;2890;51.950;7.668;2024-03-23T01:54:53;14.80;;;5.10;;
5730;SDS011;2890;51.950;7.668;2024-03-23T01:57:18;15.20;;;5.10;;
5730;SDS011;2890;51.950;7.668;2024-03-23T01:59:45;9.80;;;4.13;;
5730;SDS011;2890;51.950;7.668;2024-03-23T02:02:13;14.77;;;4.80;;
5730;SDS011;2890;51.950;7.668;2024-03-23T02:04:39;8.10;;;4.10;;
5730;SDS011;2890;51.950;7.668;2024-03-23T02:07:05;18.30;;;5.00;;
5730;SDS011;2890;51.950;7.668;2024-03-23T02:09:32;17.23;;;4.87;;
5730;SDS011;2890;51.950;7.668;2024-03-23T02:11:58;23.47;;;5.87;;
5730;SDS011;2890;51.950;7.668;2024-03-23T02:14:24;15.27;;;4.87;;
5730;SDS011;2890;51.950;7.668;2024-03-23T02:16:50;14.90;;;5.73;;
5730;SDS011;2890;51.950;7.668;2024-03-23T02:19:18;18.17;;;6.03;;
5730;SDS011;2890;51.950;7.668;2024-03-23T02:21:43;15.00;;;5.73;;
5730;SDS011;2890;51.950;7.668;2024-03-23T02:24:13;23.80;;;6.07;;
5730;SDS011;2890;51.950;7.668;2024-03-23T02:26:38;21.87;;;5.80;;
5730;SDS011;2890;51.950;7.668;2024-03-23T02:29:05;17.70;;;6.10;;
5730;SDS011;2890;51.950;7.668;2024-03-23T02:31:30;24.03;;;7.17;;
5730;SDS011;2890;51.950;7.668;2024-03-23T02:33:57;18.83;;;6.50;;
5730;SDS011;2890;51.950;7.668;2024-03-23T02:36:22;41.67;;;7.70;;
5730;SDS011;2890;51.950;7.668;2024-03-23T02:38:49;22.30;;;6.27;;
5730;SDS011;2890;51.950;7.668;2024-03-23T02:41:16;26.93;;;7.73;;
5730;SDS011;2890;51.950;7.668;2024-03-23T02:43:48;25.13;;;7.53;;
5730;SDS011;2890;51.950;7.668;2024-03-23T02:46:14;22.80;;;7.57;;
5730;SDS011;2890;51.950;7.668;2024-03-23T02:48:40;32.63;;;8.30;;
5730;SDS011;2890;51.950;7.668;2024-03-23T02:51:05;19.07;;;6.57;;
5730;SDS011;2890;51.950;7.668;2024-03-23T02:53:32;23.50;;;7.60;;
5730;SDS011;2890;51.950;7.668;2024-03-23T02:55:57;30.73;;;8.30;;
5730;SDS011;2890;51.950;7.668;2024-03-23T02:58:25;26.73;;;7.43;;
5730;SDS011;2890;51.950;7.668;2024-03-23T03:00:51;26.97;;;7.87;;
5730;SDS011;2890;51.950;7.668;2024-03-23T03:03:17;20.20;;;6.37;;
5730;SDS011;2890;51.950;7.668;2024-03-23T03:05:43;22.10;;;7.17;;
5730;SDS011;2890;51.950;7.668;2024-03-23T03:08:09;24.47;;;7.13;;
5730;SDS011;2890;51.950;7.668;2024-03-23T03:10:35;19.40;;;7.73;;
5730;SDS011;2890;51.950;7.668;2024-03-23T03:13:02;24.53;;;7.10;;
5730;SDS011;2890;51.950;7.668;2024-03-23T03:15:29;25.10;;;7.73;;
5730;SDS011;2890;51.950;7.668;2024-03-23T03:17:55;24.73;;;7.70;;
5730;SDS011;2890;51.950;7.668;2024-03-23T03:20:21;27.20;;;6.80;;
5730;SDS011;2890;51.950;7.668;2024-03-23T03:22:48;31.00;;;7.10;;
5730;SDS011;2890;51.950;7.668;2024-03-23T03:25:14;18.73;;;6.73;;
5730;SDS011;2890;51.950;7.668;2024-03-23T03:27:40;24.93;;;7.63;;
5730;SDS011;2890;51.950;7.668;2024-03-23T03:30:06;26.00;;;8.00;;
5730;SDS011;2890;51.950;7.668;2024-03-23T03:32:35;19.83;;;7.60;;
5730;SDS011;2890;51.950;7.668;2024-03-23T03:35:00;23.50;;;7.30;;
5730;SDS011;2890;51.950;7.668;2024-03-23T03:37:27;31.77;;;8.20;;
5730;SDS011;2890;51.950;7.668;2024-03-23T03:39:52;36.90;;;9.30;;
5730;SDS011;2890;51.950;7.668;2024-03-23T03:42:19;31.67;;;9.33;;
5730;SDS011;2890;51.950;7.668;2024-03-23T03:44:44;34.40;;;9.90;;
5730;SDS011;2890;51.950;7.668;2024-03-23T03:47:11;24.40;;;8.83;;
5730;SDS011;2890;51.950;7.668;2024-03-23T03:49:38;39.10;;;10.23;;
5730;SDS011;2890;51.950;7.668;2024-03-23T03:52:04;37.43;;;9.70;;
5730;SDS011;2890;51.950;7.668;2024-03-23T03:54:30;30.63;;;9.00;;
5730;SDS011;2890;51.950;7.668;2024-03-23T03:56:56;25.77;;;8.63;;
5730;SDS011;2890;51.950;7.668;2024-03-23T03:59:22;29.10;;;9.07;;
5730;SDS011;2890;51.950;7.668;2024-03-23T04:01:48;28.43;;;9.03;;
5730;SDS011;2890;51.950;7.668;2024-03-23T04:04:14;30.40;;;9.43;;
5730;SDS011;2890;51.950;7.668;2024-03-23T04:06:42;30.67;;;9.73;;
5730;SDS011;2890;51.950;7.668;2024-03-23T04:09:08;28.40;;;9.80;;
5730;SDS011;2890;51.950;7.668;2024-03-23T04:11:35;35.27;;;11.17;;
5730;SDS011;2890;51.950;7.668;2024-03-23T04:14:00;29.73;;;9.60;;
5730;SDS011;2890;51.950;7.668;2024-03-23T04:16:27;39.07;;;10.67;;
5730;SDS011;2890;51.950;7.668;2024-03-23T04:18:53;34.30;;;9.30;;
5730;SDS011;2890;51.950;7.668;2024-03-23T04:21:20;31.93;;;10.13;;
5730;SDS011;2890;51.950;7.668;2024-03-23T04:23:46;43.83;;;10.30;;
5730;SDS011;2890;51.950;7.668;2024-03-23T04:26:13;47.83;;;11.30;;
5730;SDS011;2890;51.950;7.668;2024-03-23T04:28:39;39.97;;;11.00;;
5730;SDS011;2890;51.950;7.668;2024-03-23T04:31:05;30.83;;;9.20;;
5730;SDS011;2890;51.950;7.668;2024-03-23T04:33:31;35.03;;;9.87;;
5730;SDS011;2890;51.950;7.668;2024-03-23T04:35:57;37.87;;;10.30;;
5730;SDS011;2890;51.950;7.668;2024-03-23T04:38:23;36.20;;;10.77;;
5730;SDS011;2890;51.950;7.668;2024-03-23T04:40:54;37.13;;;10.43;;
5730;SDS011;2890;51.950;7.668;2024-03-23T04:43:21;44.33;;;11.77;;
5730;SDS011;2890;51.950;7.668;2024-03-23T04:45:48;30.43;;;10.10;;
5730;SDS011;2890;51.950;7.668;2024-03-23T04:48:13;37.53;;;11.50;;
5730;SDS011;2890;51.950;7.668;2024-03-23T04:50:40;41.40;;;11.33;;
5730;SDS011;2890;51.950;7.668;2024-03-23T04:53:06;38.97;;;11.30;;
5730;SDS011;2890;51.950;7.668;2024-03-23T04:55:33;41.80;;;12.53;;
5730;SDS011;2890;51.950;7.668;2024-03-23T04:58:00;46.47;;;11.77;;
5730;SDS011;2890;51.950;7.668;2024-03-23T05:00:26;51.30;;;12.50;;
5730;SDS011;2890;51.950;7.668;2024-03-23T05:02:52;35.93;;;11.63;;
5730;SDS011;2890;51.950;7.668;2024-03-23T05:05:18;39.43;;;11.70;;
5730;SDS011;2890;51.950;7.668;2024-03-23T05:07:45;51.40;;;12.10;;
5730;SDS011;2890;51.950;7.668;2024-03-23T05:10:10;45.70;;;12.60;;
5730;SDS011;2890;51.950;7.668;2024-03-23T05:12:38;52.87;;;13.67;;
5730;SDS011;2890;51.950;7.668;2024-03-23T05:15:05;47.80;;;13.40;;
5730;SDS011;2890;51.950;7.668;2024-03-23T05:17:32;50.30;;;13.73;;
5730;SDS011;2890;51.950;7.668;2024-03-23T05:19:58;50.13;;;14.77;;
5730;SDS011;2890;51.950;7.668;2024-03-23T05:22:24;41.83;;;10.57;;
5730;SDS011;2890;51.950;7.668;2024-03-23T05:24:50;45.70;;;13.27;;
5730;SDS011;2890;51.950;7.668;2024-03-23T05:27:17;39.30;;;13.50;;
5730;SDS011;2890;51.950;7.668;2024-03-23T05:29:42;42.93;;;13.60;;
5730;SDS011;2890;51.950;7.668;2024-03-23T05:32:10;44.97;;;13.60;;
5730;SDS011;2890;51.950;7.668;2024-03-23T05:34:35;46.73;;;14.40;;
5730;SDS011;2890;51.950;7.668;2024-03-23T05:37:02;51.60;;;15.37;;
5730;SDS011;2890;51.950;7.668;2024-03-23T05:39:28;43.10;;;15.80;;
5730;SDS011;2890;51.950;7.668;2024-03-23T05:41:54;54.13;;;15.17;;
5730;SDS011;2890;51.950;7.668;2024-03-23T05:44:20;50.93;;;15.67;;
5730;SDS011;2890;51.950;7.668;2024-03-23T05:46:46;62.20;;;17.57;;
5730;SDS011;2890;51.950;7.668;2024-03-23T05:49:15;54.30;;;17.80;;
5730;SDS011;2890;51.950;7.668;2024-03-23T05:51:41;63.77;;;18.20;;
5730;SDS011;2890;51.950;7.668;2024-03-23T05:54:07;47.83;;;17.80;;
5730;SDS011;2890;51.950;7.668;2024-03-23T05:56:33;65.50;;;20.40;;
5730;SDS011;2890;51.950;7.668;2024-03-23T05:58:59;68.73;;;20.33;;
5730;SDS011;2890;51.950;7.668;2024-03-23T06:01:25;51.13;;;20.30;;
5730;SDS011;2890;51.950;7.668;2024-03-23T06:03:53;48.97;;;19.47;;
5730;SDS011;2890;51.950;7.668;2024-03-23T06:06:21;61.37;;;20.60;;
5730;SDS011;2890;51.950;7.668;2024-03-23T06:08:48;63.47;;;19.97;;
5730;SDS011;2890;51.950;7.668;2024-03-23T06:11:15;58.07;;;19.27;;
5730;SDS011;2890;51.950;7.668;2024-03-23T06:13:40;74.13;;;22.50;;
5730;SDS011;2890;51.950;7.668;2024-03-23T06:16:07;71.73;;;22.87;;
5730;SDS011;2890;51.950;7.668;2024-03-23T06:18:32;71.37;;;22.77;;
5730;SDS011;2890;51.950;7.668;2024-03-23T06:20:59;58.73;;;22.60;;
5730;SDS011;2890;51.950;7.668;2024-03-23T06:23:26;71.33;;;22.90;;
5730;SDS011;2890;51.950;7.668;2024-03-23T06:25:52;59.23;;;21.87;;
5730;SDS011;2890;51.950;7.668;2024-03-23T06:28:18;60.83;;;22.07;;
5730;SDS011;2890;51.950;7.668;2024-03-23T06:30:46;57.37;;;22.73;;
5730;SDS011;2890;51.950;7.668;2024-03-23T06:33:11;50.43;;;22.87;;
5730;SDS011;2890;51.950;7.668;2024-03-23T06:35:38;56.03;;;23.13;;
5730;SDS011;2890;51.950;7.668;2024-03-23T06:38:03;48.17;;;21.27;;
5730;SDS011;2890;51.950;7.668;2024-03-23T06:40:31;46.43;;;20.47;;
5730;SDS011;2890;51.950;7.668;2024-03-23T06:42:57;53.63;;;21.10;;
5730;SDS011;2890;51.950;7.668;2024-03-23T06:45:23;45.03;;;18.50;;
5730;SDS011;2890;51.950;7.668;2024-03-23T06:47:49;39.57;;;18.97;;
5730;SDS011;2890;51.950;7.668;2024-03-23T06:50:16;44.50;;;19.53;;
5730;SDS011;2890;51.950;7.668;2024-03-23T06:52:42;44.87;;;19.20;;
5730;SDS011;2890;51.950;7.668;2024-03-23T06:55:08;42.90;;;18.30;;
5730;SDS011;2890;51.950;7.668;2024-03-23T06:57:35;44.13;;;18.00;;
5730;SDS011;2890;51.950;7.668;2024-03-23T07:00:02;34.33;;;17.63;;
5730;SDS011;2890;51.950;7.668;2024-03-23T07:02:28;28.17;;;15.63;;
5730;SDS011;2890;51.950;7.668;2024-03-23T07:04:54;33.13;;;13.00;;
5730;SDS011;2890;51.950;7.668;2024-03-23T07:07:19;20.07;;;11.97;;
5730;SDS011;2890;51.950;7.668;2024-03-23T07:09:46;18.40;;;11.00;;
5730;SDS011;2890;51.950;7.668;2024-03-23T07:12:12;18.73;;;10.80;;
5730;SDS011;2890;51.950;7.668;2024-03-23T07:14:40;23.83;;;10.77;;
5730;SDS011;2890;51.950;7.668;2024-03-23T07:17:06;12.97;;;9.07;;
5730;SDS011;2890;51.950;7.668;2024-03-23T07:19:32;14.20;;;9.10;;
5730;SDS011;2890;51.950;7.668;2024-03-23T07:21:58;16.03;;;9.20;;
5730;SDS011;2890;51.950;7.668;2024-03-23T07:24:24;16.87;;;9.10;;
5730;SDS011;2890;51.950;7.668;2024-03-23T07:26:50;17.10;;;8.23;;
5730;SDS011;2890;51.950;7.668;2024-03-23T07:29:19;14.40;;;8.73;;
5730;SDS011;2890;51.950;7.668;2024-03-23T07:31:46;17.57;;;9.20;;
5730;SDS011;2890;51.950;7.668;2024-03-23T07:34:12;13.77;;;7.30;;
5730;SDS011;2890;51.950;7.668;2024-03-23T07:36:38;13.23;;;7.20;;
5730;SDS011;2890;51.950;7.668;2024-03-23T07:39:05;14.30;;;8.37;;
5730;SDS011;2890;51.950;7.668;2024-03-23T07:41:33;14.27;;;6.73;;
5730;SDS011;2890;51.950;7.668;2024-03-23T07:43:58;16.40;;;7.37;;
5730;SDS011;2890;51.950;7.668;2024-03-23T07:46:25;9.43;;;6.60;;
5730;SDS011;2890;51.950;7.668;2024-03-23T07:48:52;13.43;;;6.93;;
5730;SDS011;2890;51.950;7.668;2024-03-23T07:51:20;12.37;;;7.17;;
5730;SDS011;2890;51.950;7.668;2024-03-23T07:53:46;13.17;;;6.93;;
5730;SDS011;2890;51.950;7.668;2024-03-23T07:56:13;17.10;;;7.20;;
5730;SDS011;2890;51.950;7.668;2024-03-23T07:58:40;9.30;;;5.30;;
5730;SDS011;2890;51.950;7.668;2024-03-23T08:01:07;11.67;;;5.50;;
5730;SDS011;2890;51.950;7.668;2024-03-23T08:03:33;12.13;;;5.10;;
5730;SDS011;2890;51.950;7.668;2024-03-23T08:06:07;15.17;;;5.07;;
5730;SDS011;2890;51.950;7.668;2024-03-23T08:08:33;12.93;;;7.40;;
5730;SDS011;2890;51.950;7.668;2024-03-23T08:11:00;9.20;;;6.77;;
5730;SDS011;2890;51.950;7.668;2024-03-23T08:13:26;7.73;;;5.00;;
5730;SDS011;2890;51.950;7.668;2024-03-23T08:15:55;14.63;;;5.10;;
5730;SDS011;2890;51.950;7.668;2024-03-23T08:18:21;12.43;;;5.30;;
5730;SDS011;2890;51.950;7.668;2024-03-23T08:20:54;12.03;;;5.13;;
5730;SDS011;2890;51.950;7.668;2024-03-23T08:23:22;14.20;;;5.40;;
5730;SDS011;2890;51.950;7.668;2024-03-23T08:25:48;9.37;;;4.37;;
5730;SDS011;2890;51.950;7.668;2024-03-23T08:28:14;10.87;;;5.70;;
5730;SDS011;2890;51.950;7.668;2024-03-23T08:30:40;10.50;;;5.27;;
5730;SDS011;2890;51.950;7.668;2024-03-23T08:33:06;11.77;;;7.20;;
5730;SDS011;2890;51.950;7.668;2024-03-23T08:35:32;15.10;;;4.90;;
5730;SDS011;2890;51.950;7.668;2024-03-23T08:37:58;7.10;;;3.50;;
5730;SDS011;2890;51.950;7.668;2024-03-23T08:40:26;9.20;;;4.20;;
5730;SDS011;2890;51.950;7.668;2024-03-23T08:42:51;8.00;;;3.97;;
5730;SDS011;2890;51.950;7.668;2024-03-23T08:45:18;8.03;;;3.80;;
5730;SDS011;2890;51.950;7.668;2024-03-23T08:47:43;6.77;;;3.00;;
5730;SDS011;2890;51.950;7.668;2024-03-23T08:50:10;10.10;;;3.50;;
5730;SDS011;2890;51.950;7.668;2024-03-23T08:52:35;8.03;;;2.97;;
5730;SDS011;2890;51.950;7.668;2024-03-23T08:55:02;7.30;;;3.20;;
5730;SDS011;2890;51.950;7.668;2024-03-23T08:57:29;5.07;;;3.10;;
5730;SDS011;2890;51.950;7.668;2024-03-23T08:59:55;7.50;;;3.40;;
5730;SDS011;2890;51.950;7.668;2024-03-23T09:02:21;10.30;;;4.20;;
5730;SDS011;2890;51.950;7.668;2024-03-23T09:04:47;5.50;;;3.20;;
5730;SDS011;2890;51.950;7.668;2024-03-23T09:07:13;6.60;;;3.33;;
5730;SDS011;2890;51.950;7.668;2024-03-23T09:09:39;8.53;;;3.40;;
5730;SDS011;2890;51.950;7.668;2024-03-23T09:12:05;8.40;;;4.00;;
5730;SDS011;2890;51.950;7.668;2024-03-23T09:14:33;8.13;;;4.20;;
5730;SDS011;2890;51.950;7.668;2024-03-23T09:16:59;8.43;;;4.13;;
5730;SDS011;2890;51.950;7.668;2024-03-23T09:19:26;10.00;;;4.33;;
5730;SDS011;2890;51.950;7.668;2024-03-23T09:21:53;8.37;;;4.03;;
5730;SDS011;2890;51.950;7.668;2024-03-23T09:24:19;8.03;;;4.37;;
5730;SDS011;2890;51.950;7.668;2024-03-23T09:26:45;11.73;;;5.03;;
5730;SDS011;2890;51.950;7.668;2024-03-23T09:29:11;9.23;;;4.40;;
5730;SDS011;2890;51.950;7.668;2024-03-23T09:31:39;5.30;;;3.97;;
5730;SDS011;2890;51.950;7.668;2024-03-23T09:34:06;10.33;;;4.67;;
5730;SDS011;2890;51.950;7.668;2024-03-23T09:36:31;8.67;;;4.13;;
5730;SDS011;2890;51.950;7.668;2024-03-23T09:38:58;8.37;;;3.93;;
5730;SDS011;2890;51.950;7.668;2024-03-23T09:41:23;9.83;;;5.27;;
5730;SDS011;2890;51.950;7.668;2024-03-23T09:43:52;6.83;;;4.30;;
5730;SDS011;2890;51.950;7.668;2024-03-23T09:46:17;6.90;;;4.30;;
5730;SDS011;2890;51.950;7.668;2024-03-23T09:48:46;7.27;;;4.10;;
5730;SDS011;2890;51.950;7.668;2024-03-23T09:51:11;5.20;;;4.20;;
5730;SDS011;2890;51.950;7.668;2024-03-23T09:53:38;5.23;;;3.97;;
5730;SDS011;2890;51.950;7.668;2024-03-23T09:56:04;8.93;;;5.07;;
5730;SDS011;2890;51.950;7.668;2024-03-23T09:58:30;10.17;;;4.83;;
5730;SDS011;2890;51.950;7.668;2024-03-23T10:00:57;5.63;;;3.70;;
5730;SDS011;2890;51.950;7.668;2024-03-23T10:03:23;6.00;;;3.77;;
5730;SDS011;2890;51.950;7.668;2024-03-23T10:06:00;5.73;;;3.70;;
5730;SDS011;2890;51.950;7.668;2024-03-23T10:08:27;7.27;;;3.53;;
5730;SDS011;2890;51.950;7.668;2024-03-23T10:10:54;6.63;;;4.40;;
5730;SDS011;2890;51.950;7.668;2024-03-23T10:13:24;7.57;;;3.50;;
5730;SDS011;2890;51.950;7.668;2024-03-23T10:15:54;6.50;;;3.87;;
5730;SDS011;2890;51.950;7.668;2024-03-23T10:18:22;5.03;;;3.30;;
5730;SDS011;2890;51.950;7.668;2024-03-23T10:20:50;7.63;;;3.77;;
5730;SDS011;2890;51.950;7.668;2024-03-23T10:23:19;5.97;;;3.37;;
5730;SDS011;2890;51.950;7.668;2024-03-23T10:25:45;6.73;;;3.37;;
5730;SDS011;2890;51.950;7.668;2024-03-23T10:28:11;6.00;;;3.60;;
5730;SDS011;2890;51.950;7.668;2024-03-23T10:30:37;7.23;;;3.77;;
5730;SDS011;2890;51.950;7.668;2024-03-23T10:33:07;4.50;;;2.87;;
5730;SDS011;2890;51.950;7.668;2024-03-23T10:35:33;4.03;;;2.63;;
5730;SDS011;2890;51.950;7.668;2024-03-23T10:37:59;5.20;;;2.97;;
5730;SDS011;2890;51.950;7.668;2024-03-23T10:40:26;7.00;;;3.13;;
5730;SDS011;2890;51.950;7.668;2024-03-23T10:42:53;4.03;;;2.60;;
5730;SDS011;2890;51.950;7.668;2024-03-23T10:45:22;7.80;;;3.33;;
5730;SDS011;2890;51.950;7.668;2024-03-23T10:47:49;8.00;;;2.87;;
5730;SDS011;2890;51.950;7.668;2024-03-23T10:50:14;4.97;;;2.60;;
5730;SDS011;2890;51.950;7.668;2024-03-23T10:52:41;10.07;;;3.40;;
5730;SDS011;2890;51.950;7.668;2024-03-23T10:55:11;5.30;;;2.70;;
5730;SDS011;2890;51.950;7.668;2024-03-23T10:57:40;4.90;;;2.37;;
5730;SDS011;2890;51.950;7.668;2024-03-23T11:00:07;5.80;;;2.27;;
5730;SDS011;2890;51.950;7.668;2024-03-23T11:02:35;3.97;;;2.17;;
5730;SDS011;2890;51.950;7.668;2024-03-23T11:05:01;3.50;;;2.33;;
5730;SDS011;2890;51.950;7.668;2024-03-23T11:07:28;7.50;;;2.20;;
5730;SDS011;2890;51.950;7.668;2024-03-23T11:09:54;4.40;;;2.40;;
5730;SDS011;2890;51.950;7.668;2024-03-23T11:12:25;8.20;;;2.77;;
5730;SDS011;2890;51.950;7.668;2024-03-23T11:14:52;4.30;;;3.07;;
5730;SDS011;2890;51.950;7.668;2024-03-23T11:17:20;4.80;;;2.63;;
5730;SDS011;2890;51.950;7.668;2024-03-23T11:19:50;6.03;;;2.90;;
5730;SDS011;2890;51.950;7.668;2024-03-23T11:25:03;4.10;;;2.63;;
5730;SDS011;2890;51.950;7.668;2024-03-23T11:27:30;5.60;;;1.70;;
5730;SDS011;2890;51.950;7.668;2024-03-23T11:30:10;2.50;;;1.43;;
5730;SDS011;2890;51.950;7.668;2024-03-23T11:32:40;2.10;;;1.37;;
5730;SDS011;2890;51.950;7.668;2024-03-23T11:35:07;2.53;;;1.63;;
5730;SDS011;2890;51.950;7.668;2024-03-23T11:37:35;1.87;;;1.20;;
5730;SDS011;2890;51.950;7.668;2024-03-23T11:40:01;2.40;;;1.43;;
5730;SDS011;2890;51.950;7.668;2024-03-23T11:42:42;3.63;;;1.70;;
5730;SDS011;2890;51.950;7.668;2024-03-23T11:45:10;3.10;;;1.67;;
5730;SDS011;2890;51.950;7.668;2024-03-23T11:47:37;4.70;;;1.97;;
5730;SDS011;2890;51.950;7.668;2024-03-23T11:50:03;2.67;;;1.97;;
5730;SDS011;2890;51.950;7.668;2024-03-23T11:52:30;4.07;;;2.07;;
5730;SDS011;2890;51.950;7.668;2024-03-23T11:55:02;3.20;;;1.60;;
5730;SDS011;2890;51.950;7.668;2024-03-23T11:57:29;3.80;;;2.13;;
5730;SDS011;2890;51.950;7.668;2024-03-23T11:59:55;5.47;;;2.00;;
5730;SDS011;2890;51.950;7.668;2024-03-23T12:02:23;4.00;;;2.23;;
5730;SDS011;2890;51.950;7.668;2024-03-23T12:04:49;5.03;;;2.30;;
5730;SDS011;2890;51.950;7.668;2024-03-23T12:07:16;5.93;;;2.87;;
5730;SDS011;2890;51.950;7.668;2024-03-23T12:09:43;3.57;;;2.07;;
5730;SDS011;2890;51.950;7.668;2024-03-23T12:12:11;2.83;;;2.30;;
5730;SDS011;2890;51.950;7.668;2024-03-23T12:14:40;4.10;;;2.20;;
5730;SDS011;2890;51.950;7.668;2024-03-23T12:17:10;3.67;;;2.00;;
5730;SDS011;2890;51.950;7.668;2024-03-23T12:19:37;5.93;;;2.03;;
5730;SDS011;2890;51.950;7.668;2024-03-23T12:22:04;4.57;;;2.50;;
5730;SDS011;2890;51.950;7.668;2024-03-23T12:24:30;3.73;;;2.60;;
5730;SDS011;2890;51.950;7.668;2024-03-23T12:26:59;5.73;;;2.43;;
5730;SDS011;2890;51.950;7.668;2024-03-23T12:29:26;2.33;;;1.70;;
5730;SDS011;2890;51.950;7.668;2024-03-23T12:31:53;2.67;;;1.53;;
5730;SDS011;2890;51.950;7.668;2024-03-23T12:34:18;3.20;;;1.90;;
5730;SDS011;2890;51.950;7.668;2024-03-23T12:36:46;3.93;;;1.73;;
5730;SDS011;2890;51.950;7.668;2024-03-23T12:39:12;4.40;;;2.20;;
5730;SDS011;2890;51.950;7.668;2024-03-23T12:41:38;2.57;;;1.60;;
5730;SDS011;2890;51.950;7.668;2024-03-23T12:44:04;1.53;;;1.37;;
5730;SDS011;2890;51.950;7.668;2024-03-23T12:46:30;2.53;;;1.60;;
5730;SDS011;2890;51.950;7.668;2024-03-23T12:48:56;4.20;;;2.20;;
5730;SDS011;2890;51.950;7.668;2024-03-23T12:51:23;4.57;;;2.20;;
5730;SDS011;2890;51.950;7.668;2024-03-23T12:53:50;2.73;;;1.93;;
5730;SDS011;2890;51.950;7.668;2024-03-23T12:56:16;3.37;;;2.10;;
5730;SDS011;2890;51.950;7.668;2024-03-23T12:58:42;4.30;;;2.10;;
5730;SDS011;2890;51.950;7.668;2024-03-23T13:01:08;4.63;;;2.43;;
5730;SDS011;2890;51.950;7.668;2024-03-23T13:03:34;3.20;;;2.17;;
5730;SDS011;2890;51.950;7.668;2024-03-23T13:06:00;5.73;;;2.37;;
5730;SDS011;2890;51.950;7.668;2024-03-23T13:08:29;3.60;;;2.47;;
5730;SDS011;2890;51.950;7.668;2024-03-23T13:10:57;5.37;;;2.50;;
5730;SDS011;2890;51.950;7.668;2024-03-23T13:13:23;2.97;;;2.13;;
5730;SDS011;2890;51.950;7.668;2024-03-23T13:15:49;4.53;;;2.77;;
5730;SDS011;2890;51.950;7.668;2024-03-23T13:18:15;5.80;;;2.23;;
5730;SDS011;2890;51.950;7.668;2024-03-23T13:20:42;3.10;;;2.00;;
5730;SDS011;2890;51.950;7.668;2024-03-23T13:23:07;4.90;;;1.87;;
5730;SDS011;2890;51.950;7.668;2024-03-23T13:25:34;5.90;;;2.33;;
5730;SDS011;2890;51.950;7.668;2024-03-23T13:28:00;6.73;;;2.60;;
5730;SDS011;2890;51.950;7.668;2024-03-23T13:30:27;5.03;;;2.30;;
5730;SDS011;2890;51.950;7.668;2024-03-23T13:32:52;3.97;;;2.47;;
5730;SDS011;2890;51.950;7.668;2024-03-23T13:35:19;5.40;;;2.57;;
5730;SDS011;2890;51.950;7.668;2024-03-23T13:37:44;4.40;;;2.50;;
5730;SDS011;2890;51.950;7.668;2024-03-23T13:40:11;3.23;;;1.80;;
5730;SDS011;2890;51.950;7.668;2024-03-23T13:42:37;3.07;;;1.50;;
5730;SDS011;2890;51.950;7.668;2024-03-23T13:45:05;2.40;;;1.90;;
5730;SDS011;2890;51.950;7.668;2024-03-23T13:47:31;3.10;;;1.83;;
5730;SDS011;2890;51.950;7.668;2024-03-23T13:49:58;2.20;;;1.43;;
5730;SDS011;2890;51.950;7.668;2024-03-23T13:52:23;4.30;;;1.27;;
5730;SDS011;2890;51.950;7.668;2024-03-23T13:54:51;2.63;;;1.10;;
5730;SDS011;2890;51.950;7.668;2024-03-23T13:57:17;5.03;;;2.00;;
5730;SDS011;2890;51.950;7.668;2024-03-23T13:59:46;5.30;;;1.90;;
5730;SDS011;2890;51.950;7.668;2024-03-23T14:02:13;5.03;;;2.20;;
5730;SDS011;2890;51.950;7.668;2024-03-23T14:04:40;3.80;;;2.17;;
5730;SDS011;2890;51.950;7.668;2024-03-23T14:07:06;6.37;;;2.50;;
5730;SDS011;2890;51.950;7.668;2024-03-23T14:09:34;3.60;;;2.20;;
5730;SDS011;2890;51.950;7.668;2024-03-23T14:11:59;4.07;;;2.43;;
5730;SDS011;2890;51.950;7.668;2024-03-23T14:14:26;3.33;;;2.20;;
5730;SDS011;2890;51.950;7.668;2024-03-23T14:16:51;5.40;;;2.43;;
5730;SDS011;2890;51.950;7.668;2024-03-23T14:19:19;7.50;;;3.10;;
5730;SDS011;2890;51.950;7.668;2024-03-23T14:21:45;5.97;;;2.50;;
5730;SDS011;2890;51.950;7.668;2024-03-23T14:24:11;4.30;;;2.30;;
5730;SDS011;2890;51.950;7.668;2024-03-23T14:26:37;8.30;;;3.10;;
5730;SDS011;2890;51.950;7.668;2024-03-23T14:29:03;5.80;;;2.20;;
5730;SDS011;2890;51.950;7.668;2024-03-23T14:31:29;5.00;;;2.00;;
5730;SDS011;2890;51.950;7.668;2024-03-23T14:33:55;3.47;;;1.93;;
5730;SDS011;2890;51.950;7.668;2024-03-23T14:36:22;7.43;;;2.23;;
5730;SDS011;2890;51.950;7.668;2024-03-23T14:38:49;2.03;;;1.70;;
5730;SDS011;2890;51.950;7.668;2024-03-23T14:41:15;3.03;;;1.83;;
5730;SDS011;2890;51.950;7.668;2024-03-23T14:43:42;3.40;;;1.90;;
5730;SDS011;2890;51.950;7.668;2024-03-23T14:46:09;4.57;;;2.20;;
5730;SDS011;2890;51.950;7.668;2024-03-23T14:48:36;6.10;;;1.97;;
5730;SDS011;2890;51.950;7.668;2024-03-23T14:51:02;4.83;;;1.90;;
5730;SDS011;2890;51.950;7.668;2024-03-23T14:53:32;3.03;;;2.13;;
5730;SDS011;2890;51.950;7.668;2024-03-23T14:55:58;7.63;;;2.70;;
5730;SDS011;2890;51.950;7.668;2024-03-23T14:58:25;5.10;;;2.07;;
5730;SDS011;2890;51.950;7.668;2024-03-23T15:00:50;6.20;;;2.10;;
5730;SDS011;2890;51.950;7.668;2024-03-23T15:03:17;7.80;;;2.53;;
5730;SDS011;2890;51.950;7.668;2024-03-23T15:05:51;4.13;;;2.10;;
5730;SDS011;2890;51.950;7.668;2024-03-23T15:08:18;4.97;;;2.60;;
5730;SDS011;2890;51.950;7.668;2024-03-23T15:10:45;7.17;;;3.23;;
5730;SDS011;2890;51.950;7.668;2024-03-23T15:13:11;8.33;;;2.83;;
5730;SDS011;2890;51.950;7.668;2024-03-23T15:15:38;5.47;;;2.17;;
5730;SDS011;2890;51.950;7.668;2024-03-23T15:18:05;6.30;;;2.00;;
5730;SDS011;2890;51.950;7.668;2024-03-23T15:20:31;3.77;;;1.80;;
5730;SDS011;2890;51.950;7.668;2024-03-23T15:23:00;6.60;;;2.53;;
5730;SDS011;2890;51.950;7.668;2024-03-23T15:25:26;4.27;;;1.80;;
5730;SDS011;2890;51.950;7.668;2024-03-23T15:27:54;4.37;;;1.50;;
5730;SDS011;2890;51.950;7.668;2024-03-23T15:30:20;3.97;;;1.50;;
5730;SDS011;2890;51.950;7.668;2024-03-23T15:32:46;4.63;;;1.40;;
5730;SDS011;2890;51.950;7.668;2024-03-23T15:35:12;4.03;;;1.60;;
5730;SDS011;2890;51.950;7.668;2024-03-23T15:37:38;3.57;;;1.60;;
5730;SDS011;2890;51.950;7.668;2024-03-23T15:40:05;2.30;;;1.30;;
5730;SDS011;2890;51.950;7.668;2024-03-23T15:42:35;2.80;;;1.27;;
5730;SDS011;2890;51.950;7.668;2024-03-23T15:45:02;4.27;;;1.40;;
5730;SDS011;2890;51.950;7.668;2024-03-23T15:47:28;4.30;;;1.73;;
5730;SDS011;2890;51.950;7.668;2024-03-23T15:49:54;2.43;;;1.40;;
5730;SDS011;2890;51.950;7.668;2024-03-23T15:52:21;3.23;;;1.30;;
5730;SDS011;2890;51.950;7.668;2024-03-23T15:54:46;3.83;;;2.03;;
5730;SDS011;2890;51.950;7.668;2024-03-23T15:57:13;3.10;;;1.87;;
5730;SDS011;2890;51.950;7.668;2024-03-23T15:59:40;2.97;;;2.10;;